Time;durP1;ratioP1;P1;durP2;ratioP2;P2;SDS_P1;SDS_P2;PMS_P1;PMS_P2;Temp;Humidity;BMP_temperature;BMP_pressure;BME280_temperature;BME280_humidity;BME280_pressure;Samples;Min_cycle;Max_cycle;Signal;HPM_P1;HPM_P2
2023/01/23 00:00:36;;;;;;;35.88;14.60;;;;;;;1.90;100.00;99718.59;2554164;28;20490;-83
2023/01/23 00:02:06;;;;;;;38.65;15.13;;;;;;;1.88;100.00;99718.53;2552911;29;20150;-84
2023/01/23 00:03:21;;;;;;;35.17;14.18;;;;;;;1.83;100.00;99713.28;2553095;28;20522;-82
2023/01/23 00:04:37;;;;;;;35.80;14.40;;;;;;;1.65;100.00;99721.38;2554080;28;20059;-83
2023/01/23 00:06:03;;;;;;;41.80;14.98;;;;;;;1.84;100.00;99716.72;2554239;28;20611;-82
2023/01/23 00:07:19;;;;;;;43.00;15.95;;;;;;;1.92;100.00;99724.69;2552385;29;20074;-83
2023/01/23 00:08:35;;;;;;;38.75;14.48;;;;;;;2.00;100.00;99725.78;2553523;29;20082;-83
2023/01/23 00:09:50;;;;;;;38.90;15.05;;;;;;;1.87;100.00;99726.28;2554198;29;20059;-83
2023/01/23 00:11:09;;;;;;;36.40;14.07;;;;;;;1.99;100.00;99731.78;2553024;28;20126;-84
2023/01/23 00:12:25;;;;;;;35.35;13.77;;;;;;;1.91;100.00;99722.94;2552387;28;20395;-84
2023/01/23 00:13:41;;;;;;;38.33;15.45;;;;;;;1.85;100.00;99731.38;2553476;28;20106;-82
2023/01/23 00:14:56;;;;;;;36.75;14.43;;;;;;;1.97;100.00;99731.72;2554059;29;20047;-83
2023/01/23 00:16:16;;;;;;;36.08;14.68;;;;;;;2.04;100.00;99737.06;2554614;29;20079;-82
2023/01/23 00:17:32;;;;;;;30.92;13.07;;;;;;;2.10;100.00;99734.66;2554329;28;20052;-87
2023/01/23 00:18:49;;;;;;;33.40;13.57;;;;;;;2.14;100.00;99740.78;2554229;28;20090;-83
2023/01/23 00:20:05;;;;;;;29.00;12.60;;;;;;;2.09;100.00;99744.09;2552182;28;20051;-82
2023/01/23 00:21:23;;;;;;;35.15;13.35;;;;;;;2.12;100.00;99740.72;2554042;28;20063;-83
2023/01/23 00:22:39;;;;;;;32.47;13.43;;;;;;;1.94;100.00;99748.84;2553842;29;20052;-84
2023/01/23 00:23:57;;;;;;;29.92;12.77;;;;;;;2.03;100.00;99743.09;2551782;29;20513;-82
2023/01/23 00:25:12;;;;;;;32.30;13.00;;;;;;;2.03;100.00;99740.50;2551512;29;20050;-83
2023/01/23 00:26:31;;;;;;;30.52;12.27;;;;;;;2.11;100.00;99741.56;2553240;28;20499;-83
2023/01/23 00:27:47;;;;;;;28.90;11.75;;;;;;;1.95;100.00;99741.13;2552155;29;20078;-82
2023/01/23 00:29:03;;;;;;;30.65;12.65;;;;;;;2.02;100.00;99749.03;2553277;29;20498;-83
2023/01/23 00:30:19;;;;;;;27.88;11.88;;;;;;;2.00;100.00;99743.84;2554016;28;20059;-82
2023/01/23 00:31:37;;;;;;;35.55;13.23;;;;;;;2.06;100.00;99748.31;2554203;28;20050;-82
2023/01/23 00:32:53;;;;;;;28.00;11.65;;;;;;;2.04;100.00;99744.81;2551443;29;20056;-83
2023/01/23 00:34:14;;;;;;;31.15;13.38;;;;;;;2.00;100.00;99741.28;2553672;28;20502;-82
2023/01/23 00:35:30;;;;;;;29.98;13.23;;;;;;;1.93;100.00;99741.91;2551896;29;20062;-82
2023/01/23 00:36:45;;;;;;;24.10;11.95;;;;;;;1.97;100.00;99741.19;2552474;29;20054;-83
2023/01/23 00:38:01;;;;;;;28.40;11.18;;;;;;;1.96;100.00;99747.19;2554147;29;20058;-83
2023/01/23 00:39:19;;;;;;;25.63;11.85;;;;;;;1.96;100.00;99737.72;2553672;29;20376;-86
2023/01/23 00:40:35;;;;;;;25.17;10.80;;;;;;;2.03;100.00;99743.94;2554189;29;20163;-84
2023/01/23 00:41:51;;;;;;;22.38;10.98;;;;;;;1.88;100.00;99741.78;2554353;29;20099;-83
2023/01/23 00:43:06;;;;;;;23.95;9.73;;;;;;;1.76;100.00;99741.47;2551499;29;20051;-83
2023/01/23 00:44:22;;;;;;;22.73;10.45;;;;;;;1.66;100.00;99748.03;2552047;28;20419;-82
2023/01/23 00:45:38;;;;;;;25.08;10.43;;;;;;;1.85;100.00;99751.19;2553271;29;20051;-85
2023/01/23 00:46:53;;;;;;;26.48;10.00;;;;;;;1.55;100.00;99746.03;2552854;28;20052;-83
2023/01/23 00:48:09;;;;;;;22.67;9.55;;;;;;;1.65;100.00;99746.28;2553367;29;20047;-81
2023/01/23 00:49:25;;;;;;;23.77;9.68;;;;;;;1.59;100.00;99752.16;2552199;29;20043;-82
2023/01/23 00:50:41;;;;;;;25.08;10.35;;;;;;;1.44;100.00;99757.75;2553388;29;20134;-82
2023/01/23 00:51:56;;;;;;;25.50;10.85;;;;;;;1.39;100.00;99749.88;2551718;29;20054;-84
2023/01/23 00:53:12;;;;;;;23.15;9.80;;;;;;;1.53;100.00;99751.97;2552015;29;20051;-83
2023/01/23 00:54:28;;;;;;;27.50;9.85;;;;;;;1.70;100.00;99760.25;2551165;29;20055;-84
2023/01/23 00:55:44;;;;;;;26.10;10.48;;;;;;;1.78;100.00;99761.31;2550803;29;20134;-83
2023/01/23 00:56:59;;;;;;;26.80;11.05;;;;;;;1.86;100.00;99755.50;2551357;29;20059;-83
2023/01/23 00:58:15;;;;;;;30.40;11.82;;;;;;;1.90;100.00;99760.81;2551205;29;20047;-82
2023/01/23 00:59:31;;;;;;;30.00;11.98;;;;;;;1.94;100.00;99756.59;2554394;29;20051;-82
2023/01/23 01:00:47;;;;;;;29.52;11.98;;;;;;;1.92;100.00;99755.66;2550971;29;20066;-82
2023/01/23 01:02:02;;;;;;;32.25;12.30;;;;;;;1.67;100.00;99762.69;2551434;28;20066;-83
2023/01/23 01:03:19;;;;;;;32.03;13.57;;;;;;;1.61;100.00;99767.69;2556011;29;21041;-82
2023/01/23 01:04:34;;;;;;;33.35;14.00;;;;;;;1.66;100.00;99767.00;2554739;29;20055;-83
2023/01/23 01:05:51;;;;;;;39.17;15.43;;;;;;;1.77;100.00;99772.47;2554298;28;20051;-82
2023/01/23 01:07:06;;;;;;;34.45;13.98;;;;;;;1.81;100.00;99776.03;2554968;29;20103;-83
2023/01/23 01:08:22;;;;;;;35.22;14.43;;;;;;;1.87;100.00;99763.28;2555466;29;20063;-82
2023/01/23 01:09:37;;;;;;;30.33;13.20;;;;;;;1.96;100.00;99773.88;2554573;29;20405;-82
2023/01/23 01:10:53;;;;;;;31.48;13.63;;;;;;;2.03;100.00;99774.06;2553983;28;20047;-83
2023/01/23 01:12:09;;;;;;;34.45;13.20;;;;;;;2.04;100.00;99774.09;2553429;28;20051;-81
2023/01/23 01:13:25;;;;;;;35.92;13.90;;;;;;;2.05;100.00;99770.69;2554266;28;20058;-83
2023/01/23 01:14:41;;;;;;;34.80;13.48;;;;;;;2.03;100.00;99776.66;2554574;28;20047;-83
2023/01/23 01:15:56;;;;;;;28.30;11.98;;;;;;;1.98;100.00;99774.81;2553585;29;20572;-84
2023/01/23 01:17:12;;;;;;;24.52;11.05;;;;;;;1.91;100.00;99779.75;2554091;28;20047;-83
2023/01/23 01:18:28;;;;;;;23.05;10.07;;;;;;;1.87;100.00;99778.78;2553952;29;20043;-83
2023/01/23 01:19:44;;;;;;;24.20;10.15;;;;;;;1.80;100.00;99774.28;2555053;29;20517;-83
2023/01/23 01:21:00;;;;;;;26.52;10.05;;;;;;;1.63;100.00;99769.50;2554095;29;20055;-83
2023/01/23 01:22:15;;;;;;;26.48;10.15;;;;;;;1.51;100.00;99769.13;2555466;29;20043;-83
2023/01/23 01:23:31;;;;;;;26.88;11.05;;;;;;;1.47;100.00;99780.22;2554548;28;20472;-83
2023/01/23 01:24:47;;;;;;;26.67;10.88;;;;;;;1.52;100.00;99773.47;2556089;29;20526;-83
2023/01/23 01:26:03;;;;;;;28.65;10.50;;;;;;;1.22;100.00;99771.69;2555781;28;20055;-82
2023/01/23 01:27:18;;;;;;;26.55;10.55;;;;;;;1.08;100.00;99769.56;2555196;29;20107;-86
2023/01/23 01:28:36;;;;;;;28.27;10.77;;;;;;;1.10;100.00;99772.16;2555030;29;20142;-83
2023/01/23 01:29:52;;;;;;;27.23;11.63;;;;;;;1.13;100.00;99772.28;2555472;28;20062;-82
2023/01/23 01:31:10;;;;;;;26.60;10.80;;;;;;;1.08;100.00;99769.56;2554403;28;20051;-84
2023/01/23 01:32:26;;;;;;;28.17;10.70;;;;;;;0.81;100.00;99772.09;2555546;29;20056;-83
2023/01/23 01:33:43;;;;;;;30.58;11.68;;;;;;;0.98;100.00;99773.56;2555866;28;20051;-83
2023/01/23 01:34:58;;;;;;;32.00;11.55;;;;;;;0.85;100.00;99766.25;2554900;29;20126;-83
2023/01/23 01:36:17;;;;;;;27.38;11.32;;;;;;;0.78;100.00;99772.91;2555752;28;20131;-87
2023/01/23 01:37:37;;;;;;;31.98;10.95;;;;;;;1.24;100.00;99775.19;2554641;29;20047;-90
2023/01/23 01:38:53;;;;;;;28.40;10.98;;;;;;;1.45;100.00;99771.50;2554317;29;20055;-82
2023/01/23 01:40:13;;;;;;;33.22;11.82;;;;;;;1.52;100.00;99779.50;2553880;29;20043;-82
2023/01/23 01:41:29;;;;;;;35.85;10.95;;;;;;;1.49;100.00;99776.81;2555146;29;20059;-82
2023/01/23 01:43:16;;;;;;;30.20;11.30;;;;;;;1.68;100.00;99774.81;2555663;29;20545;-82
2023/01/23 01:45:27;;;;;;;27.65;10.60;;;;;;;1.65;100.00;99774.69;2555090;28;20138;-83
2023/01/23 01:46:44;;;;;;;26.25;10.32;;;;;;;1.68;100.00;99778.25;2552903;29;20063;-82
2023/01/23 01:48:00;;;;;;;21.65;9.55;;;;;;;1.49;100.00;99769.06;2553502;29;20083;-82
2023/01/23 01:49:34;;;;;;;30.30;11.43;;;;;;;1.45;100.00;99767.25;2554932;29;20059;-83
2023/01/23 01:50:50;;;;;;;31.13;10.45;;;;;;;1.44;100.00;99765.50;2555695;29;20603;-83
2023/01/23 01:52:09;;;;;;;26.75;10.15;;;;;;;1.59;100.00;99769.38;2555650;28;20114;-83
2023/01/23 01:53:27;;;;;;;28.90;10.90;;;;;;;1.58;100.00;99762.44;2555622;29;21039;-87
2023/01/23 01:54:48;;;;;;;26.42;10.77;;;;;;;1.60;100.00;99765.94;2555550;29;20058;-83
2023/01/23 01:56:08;;;;;;;27.00;10.63;;;;;;;1.48;100.00;99759.59;2555555;28;20051;-83
2023/01/23 01:57:41;;;;;;;28.88;10.63;;;;;;;1.47;100.00;99756.97;2553466;29;20051;-83
2023/01/23 01:58:59;;;;;;;24.77;10.32;;;;;;;1.59;100.00;99757.31;2555030;29;20151;-83
2023/01/23 02:00:17;;;;;;;24.15;10.57;;;;;;;1.50;100.00;99757.91;2554108;29;20051;-83
2023/01/23 02:01:33;;;;;;;25.25;9.82;;;;;;;1.71;100.00;99761.97;2554209;29;20055;-83
2023/01/23 02:02:54;;;;;;;25.02;10.32;;;;;;;1.65;100.00;99761.78;2555226;29;21070;-88
2023/01/23 02:04:10;;;;;;;27.38;9.68;;;;;;;1.50;100.00;99751.91;2555002;29;20076;-85
2023/01/23 02:05:31;;;;;;;27.15;10.85;;;;;;;1.37;100.00;99761.84;2555475;29;20518;-84
2023/01/23 02:06:48;;;;;;;31.83;11.32;;;;;;;1.07;100.00;99759.19;2553544;29;20681;-86
2023/01/23 02:08:26;;;;;;;26.15;9.88;;;;;;;1.05;100.00;99758.25;2553261;29;20425;-82
2023/01/23 02:09:41;;;;;;;19.27;9.10;;;;;;;1.07;100.00;99765.22;2553366;29;20066;-85
2023/01/23 02:11:00;;;;;;;20.25;9.68;;;;;;;1.01;100.00;99767.59;2554139;28;20698;-83
2023/01/23 02:12:16;;;;;;;24.80;10.10;;;;;;;1.20;100.00;99758.75;2555520;29;20117;-82
2023/01/23 02:13:35;;;;;;;25.45;10.25;;;;;;;1.43;100.00;99763.75;2554765;28;20446;-82
2023/01/23 02:14:51;;;;;;;26.15;10.55;;;;;;;1.49;100.00;99761.34;2554129;28;20047;-82
2023/01/23 02:16:13;;;;;;;30.90;11.77;;;;;;;1.48;100.00;99756.16;2554497;29;20384;-84
2023/01/23 02:17:30;;;;;;;28.05;10.57;;;;;;;1.54;100.00;99754.63;2552770;29;20055;-83
2023/01/23 02:18:49;;;;;;;22.42;9.98;;;;;;;1.31;100.00;99761.66;2553152;29;20051;-82
2023/01/23 02:20:22;;;;;;;23.20;9.52;;;;;;;1.14;100.00;99753.41;2553819;29;20059;-83
2023/01/23 02:21:38;;;;;;;24.25;9.85;;;;;;;1.06;100.00;99757.44;2555120;29;20082;-83
2023/01/23 02:23:07;;;;;;;22.83;9.80;;;;;;;1.17;100.00;99755.19;2553493;29;20451;-82
2023/01/23 02:24:38;;;;;;;22.10;10.57;;;;;;;1.34;100.00;99760.88;2553818;28;20059;-83
2023/01/23 02:26:04;;;;;;;26.48;10.35;;;;;;;1.20;100.00;99757.88;2554046;29;20162;-86
2023/01/23 02:27:19;;;;;;;22.70;9.40;;;;;;;0.98;100.00;99759.75;2554734;29;20051;-84
2023/01/23 02:28:44;;;;;;;24.52;10.07;;;;;;;1.12;100.00;99755.06;2554198;29;20054;-82
2023/01/23 02:30:01;;;;;;;23.23;9.40;;;;;;;0.96;100.00;99756.28;2554848;28;20100;-83
2023/01/23 02:31:16;;;;;;;26.20;11.25;;;;;;;1.16;100.00;99756.00;2554631;29;20047;-83
2023/01/23 02:32:32;;;;;;;27.35;11.40;;;;;;;1.02;100.00;99759.03;2553623;29;20082;-84
2023/01/23 02:33:51;;;;;;;28.33;11.43;;;;;;;0.98;100.00;99760.66;2554949;28;20138;-84
2023/01/23 02:35:14;;;;;;;29.10;11.15;;;;;;;0.96;100.00;99762.28;2553410;29;20058;-86
2023/01/23 02:36:33;;;;;;;30.42;10.82;;;;;;;0.83;100.00;99773.03;2553958;29;20047;-83
2023/01/23 02:37:53;;;;;;;28.65;10.63;;;;;;;0.78;100.00;99769.44;2554579;29;20071;-86
2023/01/23 02:39:15;;;;;;;27.90;11.15;;;;;;;0.52;100.00;99770.31;2554581;29;20047;-89
2023/01/23 02:40:37;;;;;;;25.38;10.73;;;;;;;0.68;100.00;99773.41;2552715;28;20051;-82
2023/01/23 02:41:55;;;;;;;26.70;11.00;;;;;;;0.59;100.00;99780.81;2553382;29;21086;-85
2023/01/23 02:43:15;;;;;;;23.83;10.40;;;;;;;0.65;100.00;99779.31;2553418;28;20051;-82
2023/01/23 02:44:31;;;;;;;24.92;10.55;;;;;;;0.73;100.00;99781.31;2564165;28;20130;-82
2023/01/23 02:45:47;;;;;;;24.10;10.15;;;;;;;0.77;100.00;99778.00;2559102;28;20102;-83
2023/01/23 02:47:11;;;;;;;27.17;10.57;;;;;;;0.76;100.00;99773.66;2553335;29;20218;-84
2023/01/23 02:48:26;;;;;;;21.58;9.20;;;;;;;0.67;100.00;99775.09;2554039;29;20110;-83
2023/01/23 02:49:42;;;;;;;24.42;9.98;;;;;;;0.64;100.00;99781.88;2555016;29;20087;-82
2023/01/23 02:50:58;;;;;;;22.90;9.95;;;;;;;0.53;100.00;99782.38;2567263;28;20078;-84
2023/01/23 02:52:14;;;;;;;27.83;9.65;;;;;;;0.50;100.00;99790.00;2562380;28;20141;-83
2023/01/23 02:53:30;;;;;;;21.77;10.15;;;;;;;0.47;100.00;99794.19;2554808;29;20154;-84
2023/01/23 02:54:46;;;;;;;27.13;10.77;;;;;;;0.67;100.00;99793.13;2553298;28;20177;-82
2023/01/23 02:56:02;;;;;;;25.08;10.20;;;;;;;0.66;100.00;99795.69;2553043;29;20495;-82
2023/01/23 02:57:17;;;;;;;26.02;10.38;;;;;;;0.36;100.00;99797.25;2555138;29;20098;-85
2023/01/23 03:00:19;;;;;;;26.98;9.85;;;;;;;0.61;100.00;99795.53;2554425;29;20046;-83
2023/01/23 03:01:34;;;;;;;25.80;10.48;;;;;;;0.60;100.00;99792.88;2552298;28;20083;-82
2023/01/23 03:02:50;;;;;;;26.55;10.50;;;;;;;0.74;100.00;99801.09;2553464;29;20051;-83
2023/01/23 03:04:06;;;;;;;25.85;10.43;;;;;;;0.95;100.00;99798.34;2552672;28;20058;-82
2023/01/23 03:05:21;;;;;;;28.25;10.68;;;;;;;0.75;100.00;99800.28;2552906;29;21083;-82
2023/01/23 03:06:37;;;;;;;26.95;11.13;;;;;;;0.81;100.00;99795.31;2553070;29;20070;-86
2023/01/23 03:07:53;;;;;;;22.67;9.32;;;;;;;0.91;100.00;99794.78;2552834;28;20499;-83
2023/01/23 03:09:11;;;;;;;27.23;10.20;;;;;;;1.17;100.00;99794.78;2551149;29;20063;-82
2023/01/23 03:10:27;;;;;;;23.48;10.23;;;;;;;1.12;100.00;99797.19;2552972;29;20470;-85
2023/01/23 03:11:44;;;;;;;27.98;10.55;;;;;;;1.24;100.00;99793.25;2552563;29;20594;-83
2023/01/23 03:13:02;;;;;;;23.88;9.52;;;;;;;1.03;100.00;99789.16;2552354;29;20470;-82
2023/01/23 03:14:20;;;;;;;21.67;9.75;;;;;;;1.15;100.00;99786.09;2552564;29;20062;-83
2023/01/23 03:15:37;;;;;;;21.98;10.02;;;;;;;1.24;100.00;99791.53;2553122;29;20055;-82
2023/01/23 03:16:54;;;;;;;24.42;9.95;;;;;;;1.27;100.00;99791.66;2552197;29;20106;-82
2023/01/23 03:18:09;;;;;;;24.10;10.43;;;;;;;1.11;100.00;99790.28;2553955;29;20103;-83
2023/01/23 03:19:25;;;;;;;24.85;10.25;;;;;;;1.14;100.00;99799.84;2554276;28;20539;-83
2023/01/23 03:20:41;;;;;;;20.92;9.60;;;;;;;1.20;100.00;99799.16;2553518;29;20087;-82
2023/01/23 03:21:57;;;;;;;26.30;10.55;;;;;;;1.30;100.00;99808.91;2553956;29;20056;-83
2023/01/23 03:23:13;;;;;;;25.35;10.40;;;;;;;1.40;100.00;99810.97;2552840;28;20109;-82
2023/01/23 03:24:28;;;;;;;23.38;9.55;;;;;;;1.48;100.00;99802.59;2552745;29;20055;-87
2023/01/23 03:25:46;;;;;;;26.90;10.77;;;;;;;1.37;100.00;99808.31;2562578;28;20058;-83
2023/01/23 03:27:01;;;;;;;22.20;10.63;;;;;;;1.32;100.00;99815.00;2559138;28;20055;-82
2023/01/23 03:31:26;;;;;;;21.55;9.35;;;;;;;1.20;100.00;99800.03;2552020;29;20126;-82
2023/01/23 03:32:43;;;;;;;27.42;9.85;;;;;;;1.18;100.00;99800.78;2554974;29;20201;-82
2023/01/23 03:33:58;;;;;;;28.35;11.20;;;;;;;1.10;100.00;99804.00;2552816;29;20391;-85
2023/01/23 03:35:19;;;;;;;23.75;9.77;;;;;;;1.33;100.00;99800.41;2554982;28;20090;-82
2023/01/23 03:36:36;;;;;;;26.45;10.05;;;;;;;1.39;100.00;99804.06;2554450;28;20063;-83
2023/01/23 03:37:51;;;;;;;24.98;9.75;;;;;;;1.30;100.00;99790.84;2553574;29;20151;-82
2023/01/23 03:42:16;;;;;;;25.45;9.52;;;;;;;1.46;100.00;99791.34;2554547;29;20086;-83
2023/01/23 03:43:32;;;;;;;25.70;9.82;;;;;;;1.52;100.00;99786.38;2563662;28;20062;-83
2023/01/23 03:44:48;;;;;;;24.48;10.52;;;;;;;1.42;100.00;99782.63;2558823;28;20139;-83
2023/01/23 03:46:03;;;;;;;24.45;10.52;;;;;;;1.32;100.00;99785.75;2552410;29;20058;-83
2023/01/23 03:47:19;;;;;;;23.20;9.30;;;;;;;1.41;100.00;99791.22;2552622;29;20586;-84
2023/01/23 03:48:35;;;;;;;25.38;10.40;;;;;;;1.29;100.00;99789.09;2554158;29;20052;-82
2023/01/23 03:49:51;;;;;;;23.33;10.38;;;;;;;1.20;100.00;99788.84;2553071;29;20051;-82
2023/01/23 03:51:06;;;;;;;25.67;9.40;;;;;;;1.35;100.00;99794.47;2553916;29;20523;-82
2023/01/23 03:52:22;;;;;;;29.08;11.07;;;;;;;1.19;100.00;99798.28;2551812;29;20119;-82
2023/01/23 03:53:38;;;;;;;24.05;11.15;;;;;;;0.93;100.00;99800.88;2553043;29;20402;-83
2023/01/23 03:54:54;;;;;;;30.25;12.60;;;;;;;0.73;100.00;99800.22;2554226;29;21148;-86
2023/01/23 03:56:09;;;;;;;33.38;13.43;;;;;;;1.00;100.00;99803.66;2552190;29;20051;-83
2023/01/23 03:57:25;;;;;;;42.00;15.93;;;;;;;0.79;100.00;99796.97;2554091;28;20897;-84
2023/01/23 03:58:41;;;;;;;39.35;15.68;;;;;;;0.94;100.00;99802.63;2554354;29;20090;-83
2023/01/23 03:59:56;;;;;;;38.00;14.10;;;;;;;1.03;100.00;99796.03;2552470;28;20055;-86
2023/01/23 04:01:12;;;;;;;30.77;14.10;;;;;;;1.16;100.00;99798.19;2552272;29;20043;-86
2023/01/23 04:02:28;;;;;;;35.13;13.70;;;;;;;1.17;100.00;99802.50;2553815;28;20047;-86
2023/01/23 04:03:43;;;;;;;29.83;12.48;;;;;;;1.20;100.00;99812.06;2554605;28;20063;-83
2023/01/23 04:04:59;;;;;;;34.30;13.02;;;;;;;1.19;100.00;99802.53;2552524;29;20467;-83
2023/01/23 04:06:15;;;;;;;27.58;11.85;;;;;;;1.07;100.00;99800.44;2553429;28;20066;-86
2023/01/23 04:07:31;;;;;;;28.38;11.95;;;;;;;1.18;100.00;99812.00;2552423;29;20058;-88
2023/01/23 04:08:46;;;;;;;27.35;11.93;;;;;;;1.22;100.00;99810.41;2554502;28;20055;-87
2023/01/23 04:10:02;;;;;;;29.02;11.27;;;;;;;1.43;100.00;99806.72;2552760;28;20059;-83
2023/01/23 04:11:18;;;;;;;30.58;12.60;;;;;;;1.34;100.00;99810.78;2553951;28;20051;-83
2023/01/23 04:12:34;;;;;;;32.72;13.23;;;;;;;1.26;100.00;99810.56;2552473;29;20082;-85
2023/01/23 04:13:50;;;;;;;32.65;14.30;;;;;;;1.45;100.00;99805.06;2551687;29;20633;-87
2023/01/23 04:15:06;;;;;;;33.08;14.18;;;;;;;1.47;100.00;99808.59;2553620;28;20070;-84
2023/01/23 04:16:22;;;;;;;30.98;12.90;;;;;;;1.48;100.00;99808.63;2551856;29;20145;-85
2023/01/23 04:17:38;;;;;;;33.17;14.05;;;;;;;1.44;100.00;99809.38;2552041;29;20051;-83
2023/01/23 04:18:54;;;;;;;28.77;12.73;;;;;;;1.52;100.00;99807.03;2553028;29;20051;-83
2023/01/23 04:20:11;;;;;;;31.05;13.35;;;;;;;1.58;100.00;99812.34;2553831;29;20843;-85
2023/01/23 04:21:26;;;;;;;31.20;12.25;;;;;;;1.59;100.00;99813.25;2552754;29;20487;-83
2023/01/23 04:22:42;;;;;;;30.73;12.20;;;;;;;1.60;100.00;99815.00;2553432;29;20047;-83
2023/01/23 04:23:58;;;;;;;29.52;12.60;;;;;;;1.59;100.00;99810.66;2552120;29;20487;-82
2023/01/23 04:25:13;;;;;;;31.92;12.18;;;;;;;1.44;100.00;99813.63;2551935;29;20051;-85
2023/01/23 04:26:29;;;;;;;32.85;13.73;;;;;;;1.55;100.00;99815.75;2552662;29;20595;-87
2023/01/23 04:27:45;;;;;;;30.20;11.73;;;;;;;1.40;100.00;99818.72;2553665;28;20526;-83
2023/01/23 04:29:00;;;;;;;30.52;11.48;;;;;;;1.33;100.00;99814.19;2552080;29;20070;-84
2023/01/23 04:30:16;;;;;;;31.20;12.25;;;;;;;1.16;100.00;99807.59;2553809;29;20058;-89
2023/01/23 04:31:34;;;;;;;29.55;12.82;;;;;;;1.28;100.00;99810.59;2551574;28;20179;-83
2023/01/23 04:32:50;;;;;;;29.83;12.45;;;;;;;1.48;100.00;99812.94;2551402;29;20138;-86
2023/01/23 04:34:05;;;;;;;26.90;11.95;;;;;;;1.55;100.00;99812.28;2553292;29;20051;-84
2023/01/23 04:35:21;;;;;;;29.70;12.93;;;;;;;1.58;100.00;99816.66;2553234;28;20064;-83
2023/01/23 04:36:36;;;;;;;30.40;12.82;;;;;;;1.41;100.00;99810.13;2551086;29;20196;-82
2023/01/23 04:37:52;;;;;;;30.90;13.60;;;;;;;1.16;100.00;99802.44;2552060;29;20081;-83
2023/01/23 04:39:08;;;;;;;30.35;12.70;;;;;;;1.07;100.00;99801.34;2553208;29;20142;-82
2023/01/23 04:40:24;;;;;;;28.67;12.27;;;;;;;1.16;100.00;99805.91;2553242;29;20055;-84
2023/01/23 04:41:40;;;;;;;30.95;12.57;;;;;;;1.33;100.00;99803.00;2551429;29;20082;-86
2023/01/23 04:42:56;;;;;;;30.50;12.00;;;;;;;1.24;100.00;99806.16;2551133;29;20051;-83
2023/01/23 04:44:20;;;;;;;28.75;12.20;;;;;;;1.23;100.00;99802.69;2552943;29;20055;-82
2023/01/23 04:45:36;;;;;;;28.48;11.95;;;;;;;1.23;100.00;99800.09;2554051;28;20051;-83
2023/01/23 04:46:53;;;;;;;28.27;11.93;;;;;;;1.20;100.00;99800.03;2553247;28;20188;-83
2023/01/23 04:48:10;;;;;;;29.65;11.98;;;;;;;1.42;100.00;99795.53;2553165;29;20854;-82
2023/01/23 04:49:26;;;;;;;25.17;10.48;;;;;;;0.93;100.00;99789.69;2553158;29;20079;-83
2023/01/23 04:50:41;;;;;;;23.05;9.77;;;;;;;1.01;100.00;99795.09;2552622;29;20399;-83
2023/01/23 04:51:57;;;;;;;24.05;9.60;;;;;;;1.29;100.00;99790.84;2551400;28;20091;-83
2023/01/23 04:53:13;;;;;;;24.52;10.10;;;;;;;1.32;100.00;99793.50;2554049;29;20408;-83
2023/01/23 04:54:29;;;;;;;25.92;11.35;;;;;;;1.32;100.00;99789.19;2552524;28;20055;-82
2023/01/23 04:55:48;;;;;;;25.67;9.82;;;;;;;1.06;100.00;99785.81;2553875;29;20062;-83
2023/01/23 04:57:04;;;;;;;26.45;10.43;;;;;;;0.84;100.00;99790.28;2552931;29;20071;-85
2023/01/23 04:58:19;;;;;;;23.33;10.02;;;;;;;0.92;100.00;99781.06;2553847;29;20414;-84
2023/01/23 04:59:35;;;;;;;23.55;10.10;;;;;;;1.18;100.00;99783.63;2554103;28;20459;-84
2023/01/23 05:00:51;;;;;;;24.70;11.40;;;;;;;1.31;100.00;99786.59;2552331;28;20572;-84
2023/01/23 05:02:06;;;;;;;22.98;9.82;;;;;;;0.90;100.00;99790.47;2551473;29;20114;-87
2023/01/23 05:03:22;;;;;;;28.02;11.80;;;;;;;0.86;100.00;99785.16;2553200;28;20138;-85
2023/01/23 05:04:38;;;;;;;27.20;11.35;;;;;;;0.63;100.00;99785.25;2551660;29;20181;-84
2023/01/23 05:05:53;;;;;;;28.92;11.60;;;;;;;0.43;100.00;99787.16;2552082;29;20047;-84
2023/01/23 05:07:11;;;;;;;25.55;10.80;;;;;;;0.63;100.00;99790.41;2554123;28;20419;-87
2023/01/23 05:08:27;;;;;;;23.40;10.05;;;;;;;0.57;100.00;99783.38;2551423;29;20081;-84
2023/01/23 05:09:42;;;;;;;26.17;11.20;;;;;;;0.44;100.00;99779.47;2553844;29;20399;-84
2023/01/23 05:10:58;;;;;;;25.65;11.07;;;;;;;0.62;100.00;99783.50;2553616;28;20055;-89
2023/01/23 05:12:13;;;;;;;26.17;10.75;;;;;;;0.64;100.00;99787.03;2551012;29;20106;-84
2023/01/23 05:13:29;;;;;;;27.42;11.48;;;;;;;0.72;100.00;99789.88;2553384;29;20494;-83
2023/01/23 05:14:44;;;;;;;28.25;9.55;;;;;;;0.63;100.00;99785.25;2553869;28;20503;-84
2023/01/23 05:16:00;;;;;;;27.02;10.05;;;;;;;0.60;100.00;99780.88;2550715;28;20062;-83
2023/01/23 05:17:16;;;;;;;26.67;10.13;;;;;;;0.55;100.00;99791.03;2552888;29;20047;-83
2023/01/23 05:18:31;;;;;;;32.20;12.60;;;;;;;0.67;100.00;99800.00;2551416;28;20055;-87
2023/01/23 05:19:47;;;;;;;28.33;11.52;;;;;;;0.73;100.00;99797.63;2551211;28;20411;-84
2023/01/23 05:21:03;;;;;;;22.35;9.55;;;;;;;0.78;100.00;99800.38;2552170;29;20066;-84
2023/01/23 05:22:18;;;;;;;27.95;11.02;;;;;;;0.92;100.00;99803.41;2552899;29;20051;-86
2023/01/23 05:23:34;;;;;;;28.88;12.68;;;;;;;1.04;100.00;99802.94;2552008;29;20105;-83
2023/01/23 05:24:50;;;;;;;28.33;10.85;;;;;;;0.69;100.00;99801.78;2552074;28;20047;-84
2023/01/23 05:26:05;;;;;;;24.08;10.45;;;;;;;0.73;100.00;99809.66;2552937;28;20052;-83
2023/01/23 05:27:21;;;;;;;29.15;11.60;;;;;;;0.73;100.00;99801.94;2551214;29;20139;-83
2023/01/23 05:28:37;;;;;;;30.08;11.45;;;;;;;0.66;100.00;99806.00;2553948;29;20532;-83
2023/01/23 05:29:52;;;;;;;26.08;11.90;;;;;;;0.79;100.00;99813.31;2551103;29;20179;-88
2023/01/23 05:31:08;;;;;;;29.92;11.18;;;;;;;0.51;100.00;99817.53;2552934;28;20079;-83
2023/01/23 05:32:23;;;;;;;29.25;11.13;;;;;;;0.51;100.00;99820.09;2553814;28;20051;-84
2023/01/23 05:33:39;;;;;;;33.85;12.90;;;;;;;0.60;100.00;99827.28;2553813;29;20075;-84
2023/01/23 05:34:55;;;;;;;31.60;12.30;;;;;;;0.97;100.00;99825.94;2553314;28;20510;-87
2023/01/23 05:36:10;;;;;;;31.50;12.45;;;;;;;1.12;100.00;99830.72;2551262;29;20079;-84
2023/01/23 05:37:26;;;;;;;33.42;11.82;;;;;;;1.22;100.00;99825.88;2551359;29;20056;-84
2023/01/23 05:38:42;;;;;;;32.88;13.45;;;;;;;1.24;100.00;99835.41;2553887;28;20051;-83
2023/01/23 05:39:57;;;;;;;34.10;12.77;;;;;;;1.29;100.00;99832.13;2552655;28;20052;-85
2023/01/23 05:41:13;;;;;;;35.20;12.65;;;;;;;1.33;100.00;99839.13;2552993;28;20051;-82
2023/01/23 05:42:28;;;;;;;30.92;12.48;;;;;;;1.36;100.00;99840.09;2553153;29;20083;-81
2023/01/23 05:43:44;;;;;;;33.38;12.18;;;;;;;1.44;100.00;99840.34;2553496;29;20062;-80
2023/01/23 05:45:00;;;;;;;33.97;13.05;;;;;;;1.37;100.00;99847.00;2553371;28;20056;-80
2023/01/23 05:46:16;;;;;;;32.30;12.27;;;;;;;1.16;100.00;99849.78;2553695;29;20059;-82
2023/01/23 05:47:31;;;;;;;31.45;12.52;;;;;;;1.20;100.00;99846.44;2551416;28;20138;-80
2023/01/23 05:48:49;;;;;;;35.80;13.57;;;;;;;1.13;100.00;99847.97;2552167;29;20131;-81
2023/01/23 05:50:06;;;;;;;32.63;13.07;;;;;;;1.11;100.00;99851.31;2554278;29;20058;-83
2023/01/23 05:51:26;;;;;;;31.95;12.00;;;;;;;1.16;100.00;99861.78;2554454;29;20090;-82
2023/01/23 05:52:42;;;;;;;34.78;13.10;;;;;;;1.12;100.00;99856.53;2554463;28;20518;-87
2023/01/23 05:54:01;;;;;;;30.92;12.35;;;;;;;0.92;100.00;99855.84;2553006;29;20052;-81
2023/01/23 05:55:17;;;;;;;33.03;12.93;;;;;;;0.88;100.00;99855.69;2553949;29;20055;-80
2023/01/23 05:56:33;;;;;;;32.25;12.77;;;;;;;1.08;100.00;99849.53;2555080;29;20800;-82
2023/01/23 05:57:48;;;;;;;30.75;12.55;;;;;;;1.13;100.00;99854.84;2555657;29;20055;-82
2023/01/23 05:59:04;;;;;;;31.10;12.43;;;;;;;1.10;100.00;99860.75;2554908;29;20421;-81
2023/01/23 06:00:20;;;;;;;34.30;12.75;;;;;;;1.20;100.00;99861.94;2552921;28;20051;-80
2023/01/23 06:01:35;;;;;;;30.35;12.27;;;;;;;1.28;100.00;99859.59;2554469;28;20051;-81
2023/01/23 06:02:51;;;;;;;30.20;12.32;;;;;;;1.36;100.00;99862.44;2552783;29;20067;-80
2023/01/23 06:04:06;;;;;;;29.20;12.68;;;;;;;1.38;100.00;99858.19;2553214;29;20051;-81